Hamilton, Missouri
Current Conditions -  °F | °C
As of 1:15 PM on Sunday 23 Nov 2014 (Local Time) from KGPH Reporting Station
Drizzle Drizzle  
Wind Chill: 55°   Ceiling: 500
Heat Index: 55°   Visibility: 2mi
Dew Point: 55°   Wind: 0mph
Humidity: 100%   Direction: NA
Pressure: 29.37"   Gusts: NA
Location:  39.74°N, 94°W
Report Text: KGPH 231915Z AUTO 00000KT 2SM DZ SCT002 BKN005 OVC010 13/13 A2937 RMK AO2
Loading
Personal Weather Stations






























Interactive Weather Map New forecast layout! Learn more

10-Day Weather Forecast

Advertisements
Track Severe Weather on mobile